Time,TemperatureF,DewpointF,PressureIn,WindDirection,WindDirectionDegrees,WindSpeedMPH,WindSpeedGustMPH,Humidity,HourlyPrecipIn,Conditions,Clouds,dailyrainin,SoftwareType,DateUTC
2013-05-15 00:08:00,52.8,46.0,29.97,SE,144,0.0,-999.0,77,-99.99,,,0.00,weatherlink.com 1.10,2013-05-15 04:08:00,
2013-05-15 00:23:00,52.6,45.0,29.96,SE,144,0.0,-999.0,76,-99.99,,,0.00,weatherlink.com 1.10,2013-05-15 04:23:00,
2013-05-15 00:38:00,52.5,45.0,29.96,SE,144,0.0,-999.0,77,-99.99,,,0.00,weatherlink.com 1.10,2013-05-15 04:38:00,
2013-05-15 00:53:00,52.6,45.0,29.96,SE,144,0.0,-999.0,75,-99.99,,,0.00,weatherlink.com 1.10,2013-05-15 04:53:00,
2013-05-15 01:08:00,52.9,44.0,29.95,SE,144,0.0,-999.0,73,-99.99,,,0.00,weatherlink.com 1.10,2013-05-15 05:08:00,
2013-05-15 01:23:00,53.3,44.0,29.95,SE,131,0.0,-999.0,72,-99.99,,,0.00,weatherlink.com 1.10,2013-05-15 05:23:00,
2013-05-15 01:38:00,53.5,45.0,29.95,SE,131,0.0,-999.0,72,-99.99,,,0.00,weatherlink.com 1.10,2013-05-15 05:38:00,
2013-05-15 01:53:00,54.1,44.0,29.96,SE,131,0.0,-999.0,69,-99.99,,,0.00,weatherlink.com 1.10,2013-05-15 05:53:00,
2013-05-15 02:08:00,54.8,44.0,29.95,SE,130,0.0,-999.0,66,-99.99,,,0.00,weatherlink.com 1.10,2013-05-15 06:08:00,
2013-05-15 02:23:00,55.0,44.0,29.95,SE,128,0.0,-999.0,66,-99.99,,,0.00,weatherlink.com 1.10,2013-05-15 06:23:00,
2013-05-15 02:38:00,55.1,44.0,29.95,SE,128,0.0,-999.0,67,-99.99,,,0.00,weatherlink.com 1.10,2013-05-15 06:38:00,
2013-05-15 02:53:00,55.0,44.0,29.95,ENE,78,0.0,-999.0,66,-99.99,,,0.00,weatherlink.com 1.10,2013-05-15 06:53:00,
2013-05-15 03:08:00,55.3,44.0,29.94,ENE,78,0.0,-999.0,65,-99.99,,,0.00,weatherlink.com 1.10,2013-05-15 07:08:00,
2013-05-15 03:23:00,55.0,44.0,29.94,ENE,76,0.0,-999.0,67,-99.99,,,0.00,weatherlink.com 1.10,2013-05-15 07:23:00,
2013-05-15 03:38:00,55.1,45.0,29.94,ENE,61,0.0,-999.0,68,-99.99,,,0.00,weatherlink.com 1.10,2013-05-15 07:38:00,
2013-05-15 03:53:00,55.3,45.0,29.93,ENE,65,0.0,-999.0,68,-99.99,,,0.00,weatherlink.com 1.10,2013-05-15 07:53:00,
2013-05-15 04:08:00,55.1,45.0,29.93,ENE,66,0.0,-999.0,69,-99.99,,,0.00,weatherlink.com 1.10,2013-05-15 08:08:00,
2013-05-15 04:23:00,54.7,45.0,29.93,ENE,66,0.0,-999.0,71,-99.99,,,0.00,weatherlink.com 1.10,2013-05-15 08:23:00,
2013-05-15 04:39:00,55.0,46.0,29.93,East,89,0.0,-999.0,71,-99.99,,,0.00,weatherlink.com 1.10,2013-05-15 08:39:00,
2013-05-15 04:54:00,55.3,46.0,29.93,SE,138,0.0,-999.0,71,-99.99,,,0.00,weatherlink.com 1.10,2013-05-15 08:54:00,
2013-05-15 05:09:00,55.7,47.0,29.93,SE,127,0.0,-999.0,72,-99.99,,,0.00,weatherlink.com 1.10,2013-05-15 09:09:00,
2013-05-15 05:24:00,56.2,47.0,29.93,ESE,114,0.0,-999.0,72,-99.99,,,0.00,weatherlink.com 1.10,2013-05-15 09:24:00,
2013-05-15 05:39:00,56.0,47.0,29.93,ESE,114,0.0,-999.0,72,-99.99,,,0.00,weatherlink.com 1.10,2013-05-15 09:39:00,
2013-05-15 05:54:00,56.2,48.0,29.93,ESE,117,0.0,-999.0,73,-99.99,,,0.00,weatherlink.com 1.10,2013-05-15 09:54:00,
2013-05-15 06:09:00,56.2,48.0,29.93,ESE,117,0.0,-999.0,73,-99.99,,,0.00,weatherlink.com 1.10,2013-05-15 10:09:00,
2013-05-15 06:24:00,56.3,48.0,29.94,ESE,119,0.0,-999.0,73,-99.99,,,0.00,weatherlink.com 1.10,2013-05-15 10:24:00,
2013-05-15 06:39:00,56.5,48.0,29.94,South,178,0.0,-999.0,74,-99.99,,,0.00,weatherlink.com 1.10,2013-05-15 10:39:00,
2013-05-15 06:54:00,56.7,49.0,29.94,South,178,0.0,-999.0,74,-99.99,,,0.00,weatherlink.com 1.10,2013-05-15 10:54:00,
2013-05-15 07:09:00,57.2,49.0,29.94,SSE,168,0.0,-999.0,73,-99.99,,,0.00,weatherlink.com 1.10,2013-05-15 11:09:00,
2013-05-15 07:24:00,58.1,49.0,29.94,SE,143,0.0,-999.0,72,-99.99,,,0.00,weatherlink.com 1.10,2013-05-15 11:24:00,
2013-05-15 07:39:00,58.9,49.0,29.94,South,176,0.0,-999.0,71,-99.99,,,0.00,weatherlink.com 1.10,2013-05-15 11:39:00,
2013-05-15 07:54:00,60.1,50.0,29.94,South,188,0.0,-999.0,70,-99.99,,,0.00,weatherlink.com 1.10,2013-05-15 11:54:00,
2013-05-15 08:39:00,64.3,53.0,29.94,ESE,123,0.0,-999.0,66,-99.99,,,0.00,weatherlink.com 1.10,2013-05-15 12:39:00,
2013-05-15 09:09:00,64.5,52.0,29.94,ESE,119,0.0,-999.0,64,-99.99,,,0.00,weatherlink.com 1.10,2013-05-15 13:09:00,
2013-05-15 09:24:00,65.6,52.0,29.94,South,176,3.0,-999.0,62,-99.99,,,0.00,weatherlink.com 1.10,2013-05-15 13:24:00,
2013-05-15 09:39:00,67.4,53.0,29.93,SE,136,0.0,-999.0,61,-99.99,,,0.00,weatherlink.com 1.10,2013-05-15 13:39:00,
2013-05-15 09:54:00,69.4,54.0,29.92,SSW,196,1.0,-999.0,58,-99.99,,,0.00,weatherlink.com 1.10,2013-05-15 13:54:00,
2013-05-15 10:09:00,68.6,54.0,29.92,WSW,248,0.0,-999.0,61,-99.99,,,0.00,weatherlink.com 1.10,2013-05-15 14:09:00,
2013-05-15 10:24:00,68.3,54.0,29.93,South,172,0.0,-999.0,61,-99.99,,,0.00,weatherlink.com 1.10,2013-05-15 14:24:00,
2013-05-15 10:39:00,68.3,55.0,29.93,South,186,0.0,-999.0,62,-99.99,,,0.00,weatherlink.com 1.10,2013-05-15 14:39:00,
2013-05-15 10:54:00,68.9,53.0,29.93,South,191,1.0,-999.0,58,-99.99,,,0.00,weatherlink.com 1.10,2013-05-15 14:54:00,
2013-05-15 11:09:00,69.9,56.0,29.93,South,185,0.0,-999.0,62,-99.99,,,0.00,weatherlink.com 1.10,2013-05-15 15:09:00,
2013-05-15 11:25:00,72.1,56.0,29.93,South,186,0.0,-999.0,57,-99.99,,,0.00,weatherlink.com 1.10,2013-05-15 15:25:00,
2013-05-15 11:40:00,72.7,55.0,29.92,SSE,167,1.0,-999.0,55,-99.99,,,0.00,weatherlink.com 1.10,2013-05-15 15:40:00,
2013-05-15 11:55:00,73.7,57.0,29.92,ESE,110,0.0,-999.0,56,-99.99,,,0.00,weatherlink.com 1.10,2013-05-15 15:55:00,
2013-05-15 12:10:00,74.9,58.0,29.91,SE,130,1.0,-999.0,56,-99.99,,,0.00,weatherlink.com 1.10,2013-05-15 16:10:00,
2013-05-15 12:25:00,76.1,58.0,29.91,WSW,240,2.0,-999.0,54,-99.99,,,0.00,weatherlink.com 1.10,2013-05-15 16:25:00,
2013-05-15 12:40:00,77.7,58.0,29.90,SSW,205,1.0,-999.0,50,-99.99,,,0.00,weatherlink.com 1.10,2013-05-15 16:40:00,
2013-05-15 12:55:00,79.0,60.0,29.89,WSW,247,1.0,-999.0,52,-99.99,,,0.00,weatherlink.com 1.10,2013-05-15 16:55:00,
2013-05-15 13:10:00,78.8,58.0,29.89,South,175,1.0,-999.0,49,-99.99,,,0.00,weatherlink.com 1.10,2013-05-15 17:10:00,
2013-05-15 13:25:00,80.1,60.0,29.88,West,265,0.0,-999.0,50,-99.99,,,0.00,weatherlink.com 1.10,2013-05-15 17:25:00,
2013-05-15 13:55:00,82.0,59.0,29.86,West,265,1.0,-999.0,46,-99.99,,,0.00,weatherlink.com 1.10,2013-05-15 17:55:00,
2013-05-15 14:10:00,83.6,59.0,29.86,SSE,160,1.0,-999.0,43,-99.99,,,0.00,weatherlink.com 1.10,2013-05-15 18:10:00,
2013-05-15 14:25:00,84.7,60.0,29.85,SSE,150,0.0,-999.0,43,-99.99,,,0.00,weatherlink.com 1.10,2013-05-15 18:25:00,
2013-05-15 14:40:00,85.7,59.0,29.84,ESE,119,0.0,-999.0,40,-99.99,,,0.00,weatherlink.com 1.10,2013-05-15 18:40:00,
2013-05-15 14:55:00,86.1,59.0,29.84,SSW,206,1.0,-999.0,40,-99.99,,,0.00,weatherlink.com 1.10,2013-05-15 18:55:00,
2013-05-15 15:10:00,86.3,61.0,29.83,NE,41,0.0,-999.0,42,-99.99,,,0.00,weatherlink.com 1.10,2013-05-15 19:10:00,
2013-05-15 15:25:00,86.1,59.0,29.82,SSW,195,6.0,-999.0,40,-99.99,,,0.00,weatherlink.com 1.10,2013-05-15 19:25:00,
2013-05-15 15:40:00,86.7,59.0,29.82,SSE,168,0.0,-999.0,39,-99.99,,,0.00,weatherlink.com 1.10,2013-05-15 19:40:00,
2013-05-15 15:55:00,87.4,58.0,29.81,SSE,152,2.0,-999.0,37,-99.99,,,0.00,weatherlink.com 1.10,2013-05-15 19:55:00,
2013-05-15 16:10:00,87.8,58.0,29.80,SSE,167,4.0,-999.0,37,-99.99,,,0.00,weatherlink.com 1.10,2013-05-15 20:10:00,
2013-05-15 16:25:00,87.8,58.0,29.80,South,178,0.0,-999.0,36,-99.99,,,0.00,weatherlink.com 1.10,2013-05-15 20:25:00,
2013-05-15 16:40:00,88.0,59.0,29.80,NNE,30,2.0,-999.0,38,-99.99,,,0.00,weatherlink.com 1.10,2013-05-15 20:40:00,
2013-05-15 17:25:00,87.8,60.0,29.79,SSE,158,1.0,-999.0,39,-99.99,,,0.00,weatherlink.com 1.10,2013-05-15 21:25:00,
2013-05-15 17:40:00,88.0,59.0,29.78,SSW,199,3.0,-999.0,38,-99.99,,,0.00,weatherlink.com 1.10,2013-05-15 21:40:00,
2013-05-15 17:55:00,87.8,59.0,29.78,SSW,199,1.0,-999.0,38,-99.99,,,0.00,weatherlink.com 1.10,2013-05-15 21:55:00,
2013-05-15 18:10:00,87.0,59.0,29.78,SSE,165,0.0,-999.0,39,-99.99,,,0.00,weatherlink.com 1.10,2013-05-15 22:10:00,
2013-05-15 18:25:00,86.5,59.0,29.78,ESE,121,0.0,-999.0,40,-99.99,,,0.00,weatherlink.com 1.10,2013-05-15 22:25:00,
2013-05-15 18:40:00,87.0,60.0,29.77,South,179,0.0,-999.0,40,-99.99,,,0.00,weatherlink.com 1.10,2013-05-15 22:40:00,
2013-05-15 18:55:00,86.5,60.0,29.77,SSE,158,0.0,-999.0,41,-99.99,,,0.00,weatherlink.com 1.10,2013-05-15 22:55:00,
2013-05-15 19:10:00,85.5,60.0,29.77,SE,143,0.0,-999.0,43,-99.99,,,0.00,weatherlink.com 1.10,2013-05-15 23:10:00,
2013-05-15 19:25:00,84.1,61.0,29.76,SSE,167,0.0,-999.0,45,-99.99,,,0.00,weatherlink.com 1.10,2013-05-15 23:25:00,
2013-05-15 19:40:00,83.4,60.0,29.76,SW,215,0.0,-999.0,45,-99.99,,,0.00,weatherlink.com 1.10,2013-05-15 23:40:00,
2013-05-15 19:55:00,82.8,61.0,29.77,SE,133,0.0,-999.0,47,-99.99,,,0.00,weatherlink.com 1.10,2013-05-15 23:55:00,
2013-05-15 20:10:00,81.8,61.0,29.77,SE,133,0.0,-999.0,49,-99.99,,,0.00,weatherlink.com 1.10,2013-05-16 00:10:00,
2013-05-15 20:25:00,80.9,-99.9,29.77,SE,133,0.0,-999.0,-999,-99.99,,,0.00,weatherlink.com 1.10,2013-05-16 00:25:00,
2013-05-15 20:56:00,78.5,61.0,29.77,SE,134,0.0,-999.0,55,-99.99,,,0.00,weatherlink.com 1.10,2013-05-16 00:56:00,
2013-05-15 21:26:00,77.4,60.0,29.78,SE,128,0.0,-999.0,56,-99.99,,,0.00,weatherlink.com 1.10,2013-05-16 01:26:00,
2013-05-15 21:41:00,77.7,60.0,29.79,SE,127,0.0,-999.0,55,-99.99,,,0.00,weatherlink.com 1.10,2013-05-16 01:41:00,
2013-05-15 21:56:00,77.6,61.0,29.79,ESE,112,0.0,-999.0,56,-99.99,,,0.00,weatherlink.com 1.10,2013-05-16 01:56:00,
2013-05-15 22:11:00,77.0,60.0,29.79,SE,130,0.0,-999.0,56,-99.99,,,0.00,weatherlink.com 1.10,2013-05-16 02:11:00,
2013-05-15 22:56:00,75.1,61.0,29.80,SE,133,0.0,-999.0,61,-99.99,,,0.00,weatherlink.com 1.10,2013-05-16 02:56:00,
2013-05-15 23:11:00,74.7,60.0,29.79,SE,133,0.0,-999.0,61,-99.99,,,0.00,weatherlink.com 1.10,2013-05-16 03:11:00,
2013-05-15 23:26:00,74.6,60.0,29.79,SE,126,0.0,-999.0,61,-99.99,,,0.00,weatherlink.com 1.10,2013-05-16 03:26:00,
2013-05-15 23:41:00,74.6,60.0,29.79,SSE,162,0.0,-999.0,61,-99.99,,,0.00,weatherlink.com 1.10,2013-05-16 03:41:00,
2013-05-15 23:56:00,74.4,60.0,29.79,ESE,103,0.0,-999.0,61,-99.99,,,0.00,weatherlink.com 1.10,2013-05-16 03:56:00,